Time;durP1;ratioP1;P1;durP2;ratioP2;P2;SDS_P1;SDS_P2;PMS_P1;PMS_P2;Temp;Humidity;BMP_temperature;BMP_pressure;BME280_temperature;BME280_humidity;BME280_pressure;Samples;Min_cycle;Max_cycle;Signal;HPM_P1;HPM_P2
2023/12/17 00:01:04;;;;;;;26.53;17.77;;;8.80;99.90;;;;;;5021231;28;20487;-62
2023/12/17 00:03:29;;;;;;;21.93;14.97;;;8.80;99.90;;;;;;5030068;28;20198;-60
2023/12/17 00:05:56;;;;;;;31.87;16.00;;;8.80;99.90;;;;;;5026616;28;20183;-61
2023/12/17 00:08:22;;;;;;;23.47;16.97;;;8.80;99.90;;;;;;5021404;28;20191;-61
2023/12/17 00:10:51;;;;;;;22.87;15.43;;;8.80;99.90;;;;;;5013833;28;20472;-60
2023/12/17 00:13:18;;;;;;;27.30;15.53;;;8.80;99.90;;;;;;5006992;28;20779;-59
2023/12/17 00:15:43;;;;;;;24.03;17.07;;;8.80;99.90;;;;;;5007063;28;20411;-61
2023/12/17 00:18:10;;;;;;;22.63;14.70;;;8.80;99.90;;;;;;5007886;28;20431;-59
2023/12/17 00:20:36;;;;;;;23.07;15.37;;;8.80;99.90;;;;;;4992124;28;20287;-62
2023/12/17 00:23:04;;;;;;;22.30;15.20;;;8.80;99.90;;;;;;5010948;28;20546;-57
2023/12/17 00:25:30;;;;;;;22.27;15.40;;;8.80;99.90;;;;;;5007968;28;20256;-61
2023/12/17 00:27:55;;;;;;;19.00;15.00;;;8.80;99.90;;;;;;5013043;28;20566;-62
2023/12/17 00:30:21;;;;;;;25.80;14.83;;;8.80;99.90;;;;;;5007289;28;20454;-59
2023/12/17 00:32:47;;;;;;;24.93;14.43;;;8.80;99.90;;;;;;5006694;28;20547;-62
2023/12/17 00:35:13;;;;;;;23.60;16.37;;;8.80;99.90;;;;;;5008145;28;20438;-63
2023/12/17 00:37:38;;;;;;;25.70;16.57;;;8.80;99.90;;;;;;5008038;28;20175;-61
2023/12/17 00:40:05;;;;;;;24.63;15.50;;;8.80;99.90;;;;;;5011304;28;20205;-61
2023/12/17 00:42:30;;;;;;;23.20;15.97;;;8.80;99.90;;;;;;5008073;28;20205;-61
2023/12/17 00:44:56;;;;;;;27.43;16.97;;;8.80;99.90;;;;;;5013722;28;20454;-59
2023/12/17 00:47:21;;;;;;;22.53;15.40;;;8.80;99.90;;;;;;5007417;28;20172;-61
2023/12/17 00:49:47;;;;;;;23.13;15.10;;;8.80;99.90;;;;;;5006829;28;20242;-62
2023/12/17 00:52:13;;;;;;;20.67;14.33;;;8.80;99.90;;;;;;5008210;28;20252;-59
2023/12/17 00:54:38;;;;;;;24.50;14.80;;;8.80;99.90;;;;;;5007784;28;20222;-61
2023/12/17 00:57:04;;;;;;;24.97;15.17;;;8.80;99.90;;;;;;5010622;28;20178;-62
2023/12/17 00:59:30;;;;;;;23.10;14.70;;;8.80;99.90;;;;;;5007179;28;20227;-56
2023/12/17 01:01:55;;;;;;;20.20;15.00;;;8.80;99.90;;;;;;5013740;28;20271;-63
2023/12/17 01:04:21;;;;;;;23.87;14.40;;;8.80;99.90;;;;;;5005577;28;20216;-58
2023/12/17 01:06:46;;;;;;;20.17;14.50;;;8.90;99.90;;;;;;5001797;28;20177;-59
2023/12/17 01:09:12;;;;;;;24.43;15.10;;;8.80;99.90;;;;;;5006984;28;20208;-62
2023/12/17 01:11:38;;;;;;;20.13;14.50;;;8.80;99.90;;;;;;5000156;28;20259;-56
2023/12/17 01:14:03;;;;;;;20.40;13.47;;;8.80;99.90;;;;;;5012415;28;20295;-59
2023/12/17 01:16:32;;;;;;;21.93;14.20;;;8.90;99.90;;;;;;5007541;28;20548;-62
2023/12/17 01:18:57;;;;;;;20.50;14.07;;;8.90;99.90;;;;;;5006282;28;20288;-61
2023/12/17 01:21:23;;;;;;;23.40;14.17;;;8.90;99.90;;;;;;5007838;28;20456;-61
2023/12/17 01:23:49;;;;;;;18.90;15.30;;;8.90;99.90;;;;;;5007124;28;20677;-56
2023/12/17 01:26:23;;;;;;;22.03;14.60;;;8.90;99.90;;;;;;5009110;28;20175;-60
2023/12/17 01:28:49;;;;;;;18.60;13.80;;;8.80;99.90;;;;;;5007742;28;20156;-58
2023/12/17 01:31:15;;;;;;;19.50;13.77;;;8.80;99.90;;;;;;5010953;28;20483;-56
2023/12/17 01:33:41;;;;;;;21.33;14.50;;;8.80;99.90;;;;;;5008496;28;20423;-62
2023/12/17 01:36:07;;;;;;;26.80;14.63;;;8.90;99.90;;;;;;5004978;28;20407;-59
2023/12/17 01:38:33;;;;;;;19.17;13.00;;;8.90;99.90;;;;;;5004428;28;20176;-59
2023/12/17 01:40:58;;;;;;;22.00;13.97;;;8.80;99.90;;;;;;5006574;28;20506;-63
2023/12/17 01:43:24;;;;;;;19.20;14.07;;;8.90;99.90;;;;;;5008635;28;20169;-62
2023/12/17 01:45:50;;;;;;;24.23;15.03;;;8.90;99.90;;;;;;4999250;28;20255;-62
2023/12/17 01:48:16;;;;;;;16.83;12.73;;;8.90;99.90;;;;;;5009545;28;20172;-59
2023/12/17 01:50:42;;;;;;;20.87;14.63;;;8.90;99.90;;;;;;5002575;28;20485;-59
2023/12/17 01:53:08;;;;;;;21.40;14.00;;;8.90;99.90;;;;;;4991020;28;20165;-59
2023/12/17 01:55:34;;;;;;;19.90;13.83;;;8.90;99.90;;;;;;5008428;28;20681;-62
2023/12/17 01:58:00;;;;;;;21.20;14.10;;;8.90;99.90;;;;;;5008941;28;20545;-62
2023/12/17 02:00:25;;;;;;;18.87;15.17;;;8.90;99.90;;;;;;5008132;28;20290;-62
2023/12/17 02:02:51;;;;;;;24.70;14.77;;;8.90;99.90;;;;;;5004856;28;20465;-61
2023/12/17 02:05:17;;;;;;;23.40;14.30;;;8.80;99.90;;;;;;5009270;28;20180;-60
2023/12/17 02:07:43;;;;;;;23.87;15.40;;;8.80;99.90;;;;;;5006893;28;20408;-61
2023/12/17 02:10:09;;;;;;;22.37;15.20;;;8.90;99.90;;;;;;5010075;28;20195;-62
2023/12/17 02:12:34;;;;;;;22.87;16.30;;;8.90;99.90;;;;;;5005551;28;20182;-61
2023/12/17 02:15:00;;;;;;;20.87;14.63;;;8.90;99.90;;;;;;4987349;28;20422;-59
2023/12/17 02:17:30;;;;;;;27.27;15.57;;;8.90;99.90;;;;;;5008320;28;20251;-61
2023/12/17 02:19:56;;;;;;;21.50;12.67;;;8.90;99.90;;;;;;4999149;28;20196;-61
2023/12/17 02:22:23;;;;;;;21.43;13.57;;;8.90;99.90;;;;;;5009522;28;20941;-61
2023/12/17 02:24:52;;;;;;;20.63;14.10;;;9.00;99.90;;;;;;5002774;28;20440;-61
2023/12/17 02:27:25;;;;;;;20.60;13.50;;;9.00;99.90;;;;;;5000313;28;20419;-62
2023/12/17 02:29:51;;;;;;;19.33;12.63;;;9.10;99.90;;;;;;4984211;28;20950;-62
2023/12/17 02:32:17;;;;;;;20.73;14.50;;;9.10;99.90;;;;;;5007530;28;20411;-60
2023/12/17 02:34:44;;;;;;;21.23;13.30;;;9.10;99.90;;;;;;5006224;28;20414;-64
2023/12/17 02:37:09;;;;;;;25.23;14.53;;;9.20;99.90;;;;;;5006285;28;20439;-62
2023/12/17 02:39:35;;;;;;;19.50;13.70;;;9.20;99.90;;;;;;5008630;28;20605;-59
2023/12/17 02:42:01;;;;;;;18.90;13.23;;;9.10;99.90;;;;;;5005851;28;20192;-62
2023/12/17 02:44:26;;;;;;;17.10;13.50;;;9.10;99.90;;;;;;5009569;28;20697;-61
2023/12/17 02:46:53;;;;;;;19.37;13.47;;;9.10;99.90;;;;;;5003345;28;20177;-61
2023/12/17 02:49:19;;;;;;;25.73;14.83;;;9.10;99.90;;;;;;5006535;28;20188;-61
2023/12/17 02:51:44;;;;;;;19.87;14.30;;;9.10;99.90;;;;;;5005660;28;20878;-62
2023/12/17 02:54:10;;;;;;;14.80;12.23;;;9.10;99.90;;;;;;5005831;28;20176;-62
2023/12/17 02:56:39;;;;;;;17.27;12.47;;;9.10;99.90;;;;;;5009448;28;20684;-61
2023/12/17 02:59:09;;;;;;;18.07;13.37;;;9.20;99.90;;;;;;5001267;28;20447;-62
2023/12/17 03:01:35;;;;;;;18.70;13.93;;;9.20;99.90;;;;;;5004862;28;20463;-61
2023/12/17 03:04:03;;;;;;;19.73;13.37;;;9.10;99.90;;;;;;4999756;28;20482;-62
2023/12/17 03:06:28;;;;;;;21.03;14.93;;;9.20;99.90;;;;;;5008266;28;20207;-61
2023/12/17 03:08:54;;;;;;;21.47;14.47;;;9.20;99.90;;;;;;5005969;28;20464;-62
2023/12/17 03:11:19;;;;;;;23.97;13.20;;;9.10;99.90;;;;;;5007966;28;20187;-61
2023/12/17 03:13:45;;;;;;;18.23;13.37;;;9.20;99.90;;;;;;5008914;28;20604;-62
2023/12/17 03:16:11;;;;;;;21.40;15.87;;;9.30;99.90;;;;;;5000985;28;20174;-62
2023/12/17 03:18:36;;;;;;;19.27;14.37;;;9.10;99.90;;;;;;5008188;28;20659;-62
2023/12/17 03:21:05;;;;;;;26.67;15.77;;;9.10;99.90;;;;;;5003043;28;20651;-62
2023/12/17 03:23:30;;;;;;;19.37;13.77;;;9.20;99.90;;;;;;5007901;28;20172;-62
2023/12/17 03:25:56;;;;;;;21.53;13.77;;;9.30;99.90;;;;;;5005065;28;20933;-61
2023/12/17 03:28:21;;;;;;;18.83;14.23;;;9.20;99.90;;;;;;5007777;28;20180;-62
2023/12/17 03:30:47;;;;;;;18.87;14.20;;;9.10;99.90;;;;;;5008474;28;20194;-60
2023/12/17 03:33:13;;;;;;;20.83;14.20;;;9.10;99.90;;;;;;4992638;28;20172;-61
2023/12/17 03:35:38;;;;;;;21.53;13.80;;;9.10;99.90;;;;;;5008137;28;20186;-59
2023/12/17 03:38:04;;;;;;;18.50;15.33;;;9.10;99.90;;;;;;5003154;28;20177;-62
2023/12/17 03:40:30;;;;;;;19.37;14.27;;;9.20;99.90;;;;;;5007665;28;20621;-61
2023/12/17 03:42:56;;;;;;;16.43;13.40;;;9.10;99.90;;;;;;5005430;28;20200;-60
2023/12/17 03:45:22;;;;;;;20.50;12.73;;;9.30;99.90;;;;;;5007591;28;20426;-62
2023/12/17 03:47:49;;;;;;;20.83;13.60;;;9.40;99.90;;;;;;5008144;28;20458;-62
2023/12/17 03:50:15;;;;;;;21.50;16.33;;;9.40;99.90;;;;;;5000188;28;20189;-64
2023/12/17 03:52:41;;;;;;;17.73;13.53;;;9.20;99.90;;;;;;5008271;28;20420;-62
2023/12/17 03:55:07;;;;;;;20.70;14.23;;;9.20;99.90;;;;;;5006490;28;20411;-63
2023/12/17 03:57:33;;;;;;;21.50;14.03;;;9.10;99.90;;;;;;5003564;28;20260;-62
2023/12/17 03:59:58;;;;;;;19.87;14.30;;;9.20;99.90;;;;;;5003368;28;20463;-62
2023/12/17 04:02:25;;;;;;;18.20;13.80;;;9.20;99.90;;;;;;5004436;28;20193;-57
2023/12/17 04:04:50;;;;;;;19.10;14.23;;;9.20;99.90;;;;;;4987985;28;20253;-62
2023/12/17 04:07:16;;;;;;;19.77;12.43;;;9.30;99.90;;;;;;5007161;28;20562;-60
2023/12/17 04:09:41;;;;;;;19.63;13.50;;;9.40;99.90;;;;;;5003682;28;20667;-59
2023/12/17 04:12:07;;;;;;;18.17;13.20;;;9.40;99.90;;;;;;5009790;28;20191;-63
2023/12/17 04:14:33;;;;;;;18.80;14.60;;;9.30;99.90;;;;;;5003150;28;20184;-62
2023/12/17 04:16:58;;;;;;;22.97;13.07;;;9.30;99.90;;;;;;5003253;28;20191;-62
2023/12/17 04:19:24;;;;;;;19.20;12.73;;;9.40;99.90;;;;;;5003873;28;20591;-60
2023/12/17 04:21:49;;;;;;;19.23;12.80;;;9.40;99.90;;;;;;5003578;28;20196;-62
2023/12/17 04:24:15;;;;;;;19.67;14.03;;;9.50;99.90;;;;;;5007154;28;20252;-59
2023/12/17 04:26:41;;;;;;;20.73;14.10;;;9.40;99.90;;;;;;5001588;28;20647;-61
2023/12/17 04:29:06;;;;;;;20.43;12.63;;;9.30;99.90;;;;;;5009876;28;20247;-59
2023/12/17 04:31:32;;;;;;;20.20;13.67;;;9.40;99.90;;;;;;4985703;28;20231;-60
2023/12/17 04:33:57;;;;;;;18.07;13.23;;;9.20;99.90;;;;;;5003642;28;20174;-63
2023/12/17 04:36:24;;;;;;;22.00;14.00;;;9.20;99.90;;;;;;5004193;28;20627;-62
2023/12/17 04:38:49;;;;;;;16.47;13.00;;;9.20;99.90;;;;;;4988650;28;20230;-62
2023/12/17 04:41:15;;;;;;;18.20;12.03;;;9.10;99.90;;;;;;5010478;28;20447;-62
2023/12/17 04:43:41;;;;;;;19.53;14.40;;;9.30;99.90;;;;;;5006603;28;20176;-59
2023/12/17 04:46:07;;;;;;;21.00;13.57;;;9.30;99.90;;;;;;5013135;28;20697;-56
2023/12/17 04:48:33;;;;;;;20.80;14.80;;;9.30;99.90;;;;;;5004930;28;20239;-60
2023/12/17 04:50:58;;;;;;;18.37;13.17;;;9.20;99.90;;;;;;5002969;28;20420;-62
2023/12/17 04:53:24;;;;;;;17.37;12.80;;;9.20;99.90;;;;;;5005720;28;20412;-61
2023/12/17 04:55:50;;;;;;;17.37;12.83;;;9.20;99.90;;;;;;5010180;28;20191;-59
2023/12/17 04:58:15;;;;;;;19.83;14.53;;;9.20;99.90;;;;;;5006028;28;20647;-59
2023/12/17 05:00:41;;;;;;;17.97;11.97;;;9.20;99.90;;;;;;4999776;28;20219;-60
2023/12/17 05:03:06;;;;;;;19.37;13.53;;;9.20;99.90;;;;;;5002446;28;20199;-61
2023/12/17 05:05:32;;;;;;;18.50;12.97;;;9.30;99.90;;;;;;4996636;28;20234;-61
2023/12/17 05:07:58;;;;;;;19.13;15.83;;;9.40;99.90;;;;;;5000295;28;20240;-61
2023/12/17 05:10:24;;;;;;;16.53;12.60;;;9.40;99.90;;;;;;5005194;28;20192;-60
2023/12/17 05:12:50;;;;;;;19.00;12.33;;;9.30;99.90;;;;;;4999527;28;20184;-62
2023/12/17 05:15:15;;;;;;;22.80;15.17;;;9.20;99.90;;;;;;5009783;28;20446;-62
2023/12/17 05:17:41;;;;;;;22.80;13.70;;;9.30;99.90;;;;;;4996499;28;20424;-62
2023/12/17 05:20:09;;;;;;;20.40;14.03;;;9.30;99.90;;;;;;5002631;28;20660;-62
2023/12/17 05:22:34;;;;;;;17.00;12.47;;;9.20;99.90;;;;;;4977490;28;20416;-57
2023/12/17 05:25:00;;;;;;;22.17;12.83;;;9.30;99.90;;;;;;5001330;28;20419;-61
2023/12/17 05:27:26;;;;;;;19.93;11.63;;;9.40;99.90;;;;;;4998033;28;20268;-62
2023/12/17 05:29:52;;;;;;;20.33;12.40;;;9.30;99.90;;;;;;5005263;28;20523;-59
2023/12/17 05:32:17;;;;;;;18.10;12.40;;;9.30;99.90;;;;;;4999057;28;20205;-62
2023/12/17 05:34:43;;;;;;;21.00;12.93;;;9.20;99.90;;;;;;5007461;28;20184;-62
2023/12/17 05:37:08;;;;;;;19.00;13.00;;;9.40;99.90;;;;;;4989809;28;20176;-62
2023/12/17 05:39:34;;;;;;;17.23;13.07;;;9.40;99.90;;;;;;5002335;28;20216;-62
2023/12/17 05:41:59;;;;;;;15.60;12.73;;;9.30;99.90;;;;;;5005418;28;20196;-60
2023/12/17 05:44:25;;;;;;;22.77;16.10;;;9.30;99.90;;;;;;5004200;28;20172;-60
2023/12/17 05:46:51;;;;;;;20.27;13.37;;;9.30;99.90;;;;;;5008131;28;20176;-60
2023/12/17 05:49:16;;;;;;;21.10;13.80;;;9.40;99.90;;;;;;5005476;28;20192;-62
2023/12/17 05:51:45;;;;;;;15.37;11.20;;;9.20;99.90;;;;;;5007963;28;20650;-60
2023/12/17 05:54:11;;;;;;;18.93;13.50;;;9.20;99.90;;;;;;5006955;28;20255;-60
2023/12/17 05:56:42;;;;;;;14.30;11.83;;;9.40;99.90;;;;;;5009120;28;20510;-56
2023/12/17 05:59:08;;;;;;;17.00;12.73;;;9.30;99.90;;;;;;4994748;28;21004;-61
2023/12/17 06:01:35;;;;;;;18.40;13.60;;;9.20;99.90;;;;;;5009173;28;21004;-60
2023/12/17 06:04:00;;;;;;;17.33;12.83;;;9.20;99.90;;;;;;4992026;28;20416;-62
2023/12/17 06:06:26;;;;;;;21.33;13.63;;;9.30;99.90;;;;;;4999069;28;20416;-62
2023/12/17 06:08:52;;;;;;;15.80;11.30;;;9.40;99.90;;;;;;5001071;28;20615;-62
2023/12/17 06:11:18;;;;;;;16.50;13.40;;;9.20;99.90;;;;;;5005934;28;20172;-63
2023/12/17 06:13:44;;;;;;;15.43;12.10;;;9.30;99.90;;;;;;5007263;28;20430;-64
2023/12/17 06:16:11;;;;;;;15.33;11.50;;;9.20;99.90;;;;;;4999194;28;20176;-60
2023/12/17 06:18:36;;;;;;;16.67;12.83;;;9.30;99.90;;;;;;5009410;28;20433;-62
2023/12/17 06:21:02;;;;;;;15.83;12.00;;;9.40;99.90;;;;;;5006729;28;20411;-64
2023/12/17 06:23:28;;;;;;;16.57;11.90;;;9.30;99.90;;;;;;5004519;28;20183;-60
2023/12/17 06:25:54;;;;;;;14.90;11.60;;;9.40;99.90;;;;;;5002277;28;20482;-63
2023/12/17 06:28:25;;;;;;;14.13;11.83;;;9.40;99.90;;;;;;5005569;28;21012;-60
2023/12/17 06:30:51;;;;;;;14.27;10.40;;;9.50;99.90;;;;;;4999269;28;20216;-59
2023/12/17 06:33:17;;;;;;;14.43;10.87;;;9.40;99.90;;;;;;5000187;28;20420;-62
2023/12/17 06:35:45;;;;;;;17.73;10.50;;;9.40;99.90;;;;;;4993803;28;20196;-56
2023/12/17 06:38:10;;;;;;;14.60;10.53;;;9.40;99.90;;;;;;5001339;28;20180;-62
2023/12/17 06:40:36;;;;;;;13.60;10.00;;;9.50;99.90;;;;;;5006403;28;20453;-60
2023/12/17 06:43:02;;;;;;;13.13;10.30;;;9.40;99.90;;;;;;4995573;28;20631;-62
2023/12/17 06:45:28;;;;;;;14.17;9.63;;;9.30;99.90;;;;;;4989848;28;20679;-63
2023/12/17 06:47:54;;;;;;;13.37;10.80;;;9.30;99.90;;;;;;5005754;28;20180;-60
2023/12/17 06:50:19;;;;;;;11.90;10.03;;;9.40;99.90;;;;;;5005516;28;20569;-62
2023/12/17 06:52:45;;;;;;;14.73;10.37;;;9.40;99.90;;;;;;5007279;28;20184;-60
2023/12/17 06:55:10;;;;;;;11.87;10.47;;;9.30;99.90;;;;;;4995932;28;20698;-61
2023/12/17 06:57:36;;;;;;;12.70;9.43;;;9.30;99.90;;;;;;5000488;28;20577;-59
2023/12/17 07:00:02;;;;;;;16.30;9.90;;;9.40;99.90;;;;;;5006149;28;20219;-62
2023/12/17 07:02:27;;;;;;;13.40;9.87;;;9.30;99.90;;;;;;5001385;28;20702;-61
2023/12/17 07:04:53;;;;;;;14.93;11.63;;;9.30;99.90;;;;;;5002401;28;20177;-62
2023/12/17 07:07:19;;;;;;;13.97;8.93;;;9.30;99.90;;;;;;5005837;28;20220;-61
2023/12/17 07:09:44;;;;;;;14.33;10.67;;;9.30;99.90;;;;;;5002178;28;20242;-58
2023/12/17 07:12:10;;;;;;;11.70;9.80;;;9.30;99.90;;;;;;5000555;28;20587;-58
2023/12/17 07:14:36;;;;;;;14.27;10.83;;;9.40;99.90;;;;;;4993173;28;20177;-57
2023/12/17 07:17:02;;;;;;;13.20;10.20;;;9.30;99.90;;;;;;4997342;28;20426;-62
2023/12/17 07:19:28;;;;;;;12.93;9.70;;;9.30;99.90;;;;;;5000925;28;20694;-63
2023/12/17 07:21:53;;;;;;;11.50;9.07;;;9.30;99.90;;;;;;5002055;28;20657;-62
2023/12/17 07:24:19;;;;;;;11.20;9.33;;;9.30;99.90;;;;;;5005684;28;20490;-60
2023/12/17 07:26:45;;;;;;;11.77;9.83;;;9.30;99.90;;;;;;5000345;28;20185;-62
2023/12/17 07:29:11;;;;;;;13.00;9.30;;;9.30;99.90;;;;;;4975003;28;20196;-59
2023/12/17 07:31:37;;;;;;;11.47;8.73;;;9.30;99.90;;;;;;5001077;28;20408;-58
2023/12/17 07:34:02;;;;;;;11.47;9.20;;;9.30;99.90;;;;;;4996840;28;20176;-61
2023/12/17 07:36:28;;;;;;;13.07;9.57;;;9.30;99.90;;;;;;5002737;28;20479;-59
2023/12/17 07:38:53;;;;;;;10.83;9.30;;;9.30;99.90;;;;;;5008106;28;20625;-62
2023/12/17 07:41:19;;;;;;;11.90;8.50;;;9.30;99.90;;;;;;4995865;28;20211;-59
2023/12/17 07:43:45;;;;;;;12.23;9.77;;;9.30;99.90;;;;;;5000157;28;20181;-60
2023/12/17 07:46:10;;;;;;;12.30;9.30;;;9.30;99.90;;;;;;4995189;28;20626;-62
2023/12/17 07:48:36;;;;;;;10.83;8.17;;;9.40;99.90;;;;;;5000822;28;20235;-63
2023/12/17 07:51:02;;;;;;;11.80;7.93;;;9.40;99.90;;;;;;4994509;28;20200;-62
2023/12/17 07:53:27;;;;;;;11.90;8.77;;;9.40;99.90;;;;;;4996402;28;20718;-59
2023/12/17 07:55:57;;;;;;;11.90;8.43;;;9.40;99.90;;;;;;5004943;28;20420;-61
2023/12/17 07:58:24;;;;;;;15.27;9.50;;;9.40;99.90;;;;;;5000550;28;20277;-60
2023/12/17 08:00:50;;;;;;;9.87;8.10;;;9.40;99.90;;;;;;4990457;28;20457;-60
2023/12/17 08:03:15;;;;;;;10.43;7.93;;;9.40;99.90;;;;;;5029855;22;20548;-60
2023/12/17 08:05:41;;;;;;;10.50;7.47;;;9.40;99.90;;;;;;5012394;28;20177;-59
2023/12/17 08:08:06;;;;;;;11.80;8.20;;;9.50;99.90;;;;;;5009875;28;20204;-58
2023/12/17 08:10:32;;;;;;;12.83;7.47;;;9.50;99.90;;;;;;5014002;28;20185;-61
2023/12/17 08:12:57;;;;;;;8.80;7.90;;;9.50;99.90;;;;;;5010997;28;20211;-57
2023/12/17 08:15:23;;;;;;;10.43;7.97;;;9.50;99.90;;;;;;5015090;28;20226;-60
2023/12/17 08:17:48;;;;;;;9.80;7.10;;;9.60;99.90;;;;;;5014388;28;20278;-57
2023/12/17 08:20:14;;;;;;;11.37;8.07;;;9.50;99.90;;;;;;5017396;28;20187;-55
2023/12/17 08:22:40;;;;;;;13.07;9.43;;;9.60;99.90;;;;;;5017120;28;20639;-58
2023/12/17 08:25:05;;;;;;;9.90;7.50;;;9.70;99.90;;;;;;5007850;28;20545;-57
2023/12/17 08:27:31;;;;;;;9.60;8.33;;;9.80;99.90;;;;;;5012131;28;20168;-57
2023/12/17 08:29:57;;;;;;;8.00;6.80;;;9.70;99.90;;;;;;5018587;28;20184;-53
2023/12/17 08:32:23;;;;;;;9.60;7.60;;;9.80;99.90;;;;;;5025805;28;20492;-56
2023/12/17 08:34:48;;;;;;;8.70;6.10;;;9.80;99.90;;;;;;5021389;28;20188;-59
2023/12/17 08:37:14;;;;;;;10.57;7.80;;;9.80;99.90;;;;;;5022073;28;20192;-59
2023/12/17 08:39:40;;;;;;;9.30;6.83;;;9.80;99.90;;;;;;5006035;28;20184;-58
2023/12/17 08:42:05;;;;;;;7.73;6.73;;;9.80;99.90;;;;;;5011334;28;20223;-56
2023/12/17 08:44:31;;;;;;;7.80;6.80;;;9.70;99.90;;;;;;5022391;28;20211;-61
2023/12/17 08:46:56;;;;;;;8.57;7.67;;;9.70;99.90;;;;;;5016217;28;20184;-61
2023/12/17 08:49:22;;;;;;;8.43;6.43;;;9.70;99.90;;;;;;5012780;28;20180;-61
2023/12/17 08:51:47;;;;;;;7.63;6.80;;;9.60;99.90;;;;;;5012711;28;20216;-60
2023/12/17 08:54:13;;;;;;;8.60;6.57;;;9.60;99.90;;;;;;5019113;28;20185;-62
2023/12/17 08:56:40;;;;;;;7.70;6.87;;;9.60;99.90;;;;;;5012541;28;20192;-59
2023/12/17 08:59:05;;;;;;;10.37;7.53;;;9.60;99.90;;;;;;5022183;28;20198;-62
2023/12/17 09:01:31;;;;;;;9.30;7.50;;;9.60;99.90;;;;;;5015200;28;20826;-58
2023/12/17 09:03:57;;;;;;;8.30;7.10;;;9.70;99.90;;;;;;5012399;28;20191;-59
2023/12/17 09:06:22;;;;;;;10.17;6.33;;;9.60;99.90;;;;;;5017811;28;20180;-59
2023/12/17 09:08:48;;;;;;;10.17;7.33;;;9.70;99.90;;;;;;5012260;28;20176;-61
2023/12/17 09:11:15;;;;;;;10.57;8.33;;;9.70;99.90;;;;;;5012664;28;20194;-61
2023/12/17 09:13:41;;;;;;;8.77;7.33;;;9.70;99.90;;;;;;5012255;28;20230;-62
2023/12/17 09:16:07;;;;;;;8.73;6.90;;;9.70;99.90;;;;;;5016736;28;20443;-57
2023/12/17 09:18:33;;;;;;;7.67;6.87;;;9.80;99.90;;;;;;5012270;28;20499;-58
2023/12/17 09:20:58;;;;;;;8.80;7.90;;;9.70;99.90;;;;;;5011965;28;20544;-60
2023/12/17 09:23:24;;;;;;;7.80;5.83;;;9.70;99.90;;;;;;5020022;28;20212;-61
2023/12/17 09:25:49;;;;;;;10.10;6.33;;;9.80;99.90;;;;;;5014560;28;20219;-60
2023/12/17 09:28:15;;;;;;;10.10;7.93;;;9.70;99.90;;;;;;5013497;28;20180;-60
2023/12/17 09:30:41;;;;;;;10.13;6.50;;;9.80;99.90;;;;;;5017270;28;20283;-58
2023/12/17 09:33:07;;;;;;;6.77;5.93;;;9.90;99.90;;;;;;5012928;28;20689;-60
2023/12/17 09:35:33;;;;;;;10.13;6.83;;;9.90;99.90;;;;;;5012266;28;20195;-60
2023/12/17 09:37:58;;;;;;;8.33;6.80;;;9.90;99.90;;;;;;5012366;28;20419;-58
2023/12/17 09:40:24;;;;;;;9.80;7.90;;;9.90;99.90;;;;;;5012028;28;20211;-59
2023/12/17 09:42:52;;;;;;;7.73;6.93;;;9.90;99.90;;;;;;5012239;28;20204;-59
2023/12/17 09:45:18;;;;;;;8.50;6.80;;;9.90;99.90;;;;;;5013276;28;20824;-58
2023/12/17 09:47:44;;;;;;;9.30;7.47;;;9.90;99.90;;;;;;5011914;28;20526;-59
2023/12/17 09:50:10;;;;;;;7.27;6.53;;;10.00;99.90;;;;;;5013096;28;20507;-65
2023/12/17 09:52:41;;;;;;;8.00;6.40;;;10.10;99.90;;;;;;5011595;28;20200;-61
2023/12/17 09:55:07;;;;;;;7.87;6.63;;;10.00;99.90;;;;;;5011768;28;21258;-65
2023/12/17 09:57:32;;;;;;;8.00;7.10;;;9.90;99.90;;;;;;5017537;28;20422;-60
2023/12/17 09:59:58;;;;;;;8.60;7.63;;;9.90;99.90;;;;;;5013512;28;20493;-58
2023/12/17 10:02:23;;;;;;;8.30;6.80;;;9.90;99.90;;;;;;5012350;28;20247;-61
2023/12/17 10:04:49;;;;;;;8.97;6.63;;;9.90;99.90;;;;;;5010142;28;20234;-59
2023/12/17 10:07:14;;;;;;;8.97;7.10;;;9.90;99.90;;;;;;5013327;28;20677;-59
2023/12/17 10:09:40;;;;;;;8.27;7.47;;;9.90;99.90;;;;;;5011746;28;20239;-59
2023/12/17 10:12:06;;;;;;;10.30;7.83;;;10.00;99.90;;;;;;5018065;28;20215;-60
2023/12/17 10:14:32;;;;;;;6.90;6.20;;;10.00;99.90;;;;;;5011328;28;20599;-60
2023/12/17 10:16:58;;;;;;;9.67;6.80;;;9.90;99.90;;;;;;5016742;28;20546;-60
2023/12/17 10:19:24;;;;;;;8.30;6.40;;;9.90;99.90;;;;;;5011501;28;20650;-61
2023/12/17 10:21:50;;;;;;;7.03;6.30;;;9.80;99.90;;;;;;5015509;28;20685;-61
2023/12/17 10:24:15;;;;;;;7.40;5.67;;;9.80;99.90;;;;;;5015684;28;20476;-62
2023/12/17 10:26:45;;;;;;;9.87;6.70;;;9.90;99.90;;;;;;5018705;28;20180;-61
2023/12/17 10:29:14;;;;;;;6.90;5.70;;;9.90;99.90;;;;;;5007384;28;20180;-61
2023/12/17 10:31:41;;;;;;;9.23;7.83;;;9.90;99.90;;;;;;5002321;28;20921;-60
2023/12/17 10:34:22;;;;;;;9.17;7.03;;;9.90;99.90;;;;;;5004433;28;20443;-60
2023/12/17 10:36:49;;;;;;;6.93;6.10;;;9.90;99.90;;;;;;5005315;28;20917;-61
2023/12/17 10:39:15;;;;;;;7.00;6.30;;;10.00;99.90;;;;;;5004967;28;20416;-58
2023/12/17 10:41:42;;;;;;;7.33;6.63;;;10.00;99.90;;;;;;4987435;28;20507;-61
2023/12/17 10:44:14;;;;;;;8.47;7.17;;;10.00;99.90;;;;;;5003925;28;20435;-62
2023/12/17 10:46:42;;;;;;;7.73;6.30;;;10.00;99.90;;;;;;5003093;28;20751;-61
2023/12/17 10:49:08;;;;;;;9.63;6.10;;;10.10;99.90;;;;;;5004644;28;20913;-60
2023/12/17 10:51:39;;;;;;;9.97;7.30;;;10.10;99.90;;;;;;5004563;28;20439;-60
2023/12/17 10:54:06;;;;;;;7.37;6.67;;;10.00;99.90;;;;;;5005089;28;20499;-57
2023/12/17 10:56:39;;;;;;;7.43;5.93;;;10.10;99.90;;;;;;5001797;28;20423;-60
2023/12/17 10:59:14;;;;;;;7.63;6.87;;;10.00;99.90;;;;;;5003435;28;20553;-56
2023/12/17 11:01:41;;;;;;;8.53;6.50;;;10.10;99.90;;;;;;5005284;28;20481;-61
2023/12/17 11:04:07;;;;;;;6.70;6.07;;;10.00;99.90;;;;;;5004419;28;20435;-59
2023/12/17 11:06:33;;;;;;;6.77;5.47;;;10.10;99.90;;;;;;5005409;28;20419;-60
2023/12/17 11:08:59;;;;;;;8.90;6.50;;;10.20;99.90;;;;;;5006872;28;20431;-61
2023/12/17 11:11:26;;;;;;;6.87;5.80;;;10.20;99.90;;;;;;5004972;28;20706;-59
2023/12/17 11:13:53;;;;;;;7.97;6.30;;;10.20;99.90;;;;;;5006414;28;21080;-63
2023/12/17 11:16:25;;;;;;;7.20;6.53;;;10.20;99.90;;;;;;5003921;28;20490;-66
2023/12/17 11:18:52;;;;;;;8.30;6.93;;;10.20;99.90;;;;;;5006811;28;20415;-60
2023/12/17 11:21:18;;;;;;;6.97;5.90;;;10.20;99.90;;;;;;5006546;28;20508;-66
2023/12/17 11:23:48;;;;;;;8.13;6.00;;;10.20;99.90;;;;;;5005292;28;20550;-58
2023/12/17 11:26:16;;;;;;;8.20;6.30;;;10.10;99.90;;;;;;5006148;28;20415;-60
2023/12/17 11:28:41;;;;;;;7.00;5.67;;;10.10;99.90;;;;;;5004464;28;20416;-59
2023/12/17 11:31:08;;;;;;;9.23;6.57;;;10.10;99.90;;;;;;5002601;28;20425;-63
2023/12/17 11:33:36;;;;;;;7.70;5.93;;;10.10;99.90;;;;;;5003704;28;20211;-59
2023/12/17 11:36:03;;;;;;;7.60;5.87;;;10.10;99.90;;;;;;5007030;28;20486;-61
2023/12/17 11:38:29;;;;;;;6.07;5.40;;;10.20;99.90;;;;;;5003430;28;20719;-63
2023/12/17 11:40:54;;;;;;;7.30;6.10;;;10.20;99.90;;;;;;4989307;28;20911;-68
2023/12/17 11:43:25;;;;;;;6.03;5.43;;;10.10;99.90;;;;;;5006854;28;20505;-65
2023/12/17 11:45:51;;;;;;;12.57;7.40;;;10.20;99.90;;;;;;5007063;28;20180;-62
2023/12/17 11:48:19;;;;;;;7.87;7.07;;;10.20;99.90;;;;;;5008106;28;20474;-61
2023/12/17 11:50:54;;;;;;;6.97;5.10;;;10.30;99.90;;;;;;5009649;28;20500;-65
2023/12/17 11:53:20;;;;;;;7.40;6.60;;;10.20;99.90;;;;;;5015011;28;20433;-65
2023/12/17 11:55:52;;;;;;;7.80;5.87;;;10.30;99.90;;;;;;5014032;28;20480;-65
2023/12/17 11:58:21;;;;;;;6.63;5.97;;;10.30;99.90;;;;;;5014917;28;20767;-62
2023/12/17 12:01:19;;;;;;;7.67;6.40;;;10.30;99.90;;;;;;5014733;28;20477;-66
2023/12/17 12:03:45;;;;;;;7.30;6.20;;;10.30;99.90;;;;;;4977342;28;20991;-69
2023/12/17 12:06:12;;;;;;;6.23;5.63;;;10.20;99.90;;;;;;5016558;28;20493;-61
2023/12/17 12:08:42;;;;;;;7.97;5.80;;;10.20;99.90;;;;;;5013825;28;20180;-62
2023/12/17 12:11:13;;;;;;;7.37;4.80;;;10.20;99.90;;;;;;5017190;28;20419;-61
2023/12/17 12:13:42;;;;;;;6.93;6.00;;;10.30;99.90;;;;;;5012370;28;20505;-58
2023/12/17 12:16:12;;;;;;;7.17;6.10;;;10.20;99.90;;;;;;5020203;28;20415;-57
2023/12/17 12:18:38;;;;;;;5.53;5.00;;;10.30;99.90;;;;;;5017021;28;20428;-61
2023/12/17 12:21:18;;;;;;;8.17;6.47;;;10.20;99.90;;;;;;5014923;28;20418;-60
2023/12/17 12:23:52;;;;;;;5.40;4.83;;;10.10;99.90;;;;;;5019426;28;20445;-59
2023/12/17 12:26:18;;;;;;;7.03;5.93;;;10.20;99.90;;;;;;5013326;28;20415;-59
2023/12/17 12:28:50;;;;;;;6.33;5.23;;;10.40;99.90;;;;;;5024986;28;20415;-58
2023/12/17 12:31:16;;;;;;;7.13;6.43;;;10.30;99.90;;;;;;5013328;28;20419;-65
2023/12/17 12:33:51;;;;;;;34.43;24.43;;;10.20;99.90;;;;;;5023356;28;20434;-62
2023/12/17 12:36:17;;;;;;;9.83;8.20;;;10.20;99.90;;;;;;5016429;28;20417;-63
2023/12/17 12:38:42;;;;;;;5.80;5.10;;;10.20;99.90;;;;;;5017848;28;20578;-65